Maran Hermione — SVCO3 — position and weather

sailwx.info

Track history (hours):
 
Tides and Currents Weather Stations Pressure Air Temp Water Temp Dewpoint Dewpoint Depression Visibility Wind Speed Wind Dir Waves Ship Positions

Maran Hermione

Last reported at 2017-Nov-16 16:13 UTC. Time now 2017-Nov-22 20:40 UTC.
Position N 30°43' W 117°18'.

Length 274 m; draft 10 m.

Type: Tanker. MMSI: 241490000.

Date/timePositionNaut miles runAvg speedWind from/ knotsBaromVisibWave heightAir tempDewpointWater temp
2017-Nov-16 16:13N 30°43' W 117°18'2 9.5
2017-Nov-16 16:00N 30°45' W 117°18'10 9.8
2017-Nov-16 14:58N 30°55' W 117°22'510.1
2017-Nov-16 14:30N 30°59' W 117°23'710.0
2017-Nov-16 13:47N 31°06' W 117°25'310.0
2017-Nov-16 13:30N 31°09' W 117°26'510.0
2017-Nov-16 13:00N 31°14' W 117°27'5 9.9
2017-Nov-16 12:30N 31°19' W 117°29'5 9.9
2017-Nov-16 11:57N 31°24' W 117°30'410.0
2017-Nov-16 11:30N 31°28' W 117°32'5 9.9
2017-Nov-16 10:59N 31°33' W 117°33'510.0
2017-Nov-16 10:28N 31°38' W 117°35'5 9.8
2017-Nov-16 10:00N 31°43' W 117°36'5 9.8
2017-Nov-16 09:29N 31°48' W 117°38'10 9.5
2017-Nov-16 08:26N 31°57' W 117°41'4 9.6
2017-Nov-16 08:00N 32°01' W 117°42'8 9.8
2017-Nov-16 07:11N 32°09' W 117°44'2 9.9
2017-Nov-16 07:00N 32°11' W 117°45'510.3
2017-Nov-16 06:30N 32°16' W 117°47'5 9.3
2017-Nov-16 06:00N 32°20' W 117°48'5 9.2
2017-Nov-16 05:30N 32°25' W 117°49'5 9.2
2017-Nov-16 05:00N 32°29' W 117°51'5 9.4
2017-Nov-16 04:31N 32°34' W 117°52'5 9.4
2017-Nov-16 04:01N 32°38' W 117°53'5 9.5
2017-Nov-16 03:30N 32°43' W 117°55'5 9.6
2017-Nov-16 03:00N 32°48' W 117°56'5 9.8
2017-Nov-16 02:30N 32°52' W 117°58'5 9.9
2017-Nov-16 02:00N 32°57' W 117°59'5 9.9
2017-Nov-16 01:30N 33°02' W 118°01'5 9.8
2017-Nov-16 01:00N 33°07' W 118°02'5 9.7
2017-Nov-16 00:30N 33°11' W 118°04'5 9.7
2017-Nov-16 00:00N 33°16' W 118°05'5 9.8
2017-Nov-15 23:31N 33°21' W 118°07'5 9.9
2017-Nov-15 23:00N 33°25' W 118°09'5 9.9
2017-Nov-15 22:30N 33°30' W 118°11'5 9.7
2017-Nov-15 22:00N 33°34' W 118°13'510.4
2017-Nov-15 21:30N 33°40' W 118°11'3 1.1
2017-Nov-15 18:55N 33°42' W 118°09'0 0.0
2017-Nov-15 17:43N 33°42' W 118°09'0 0.0
2017-Nov-15 16:01N 33°42' W 118°09'0 0.2
2017-Nov-15 15:37N 33°42' W 118°09'0 0.1
2017-Nov-15 15:28N 33°42' W 118°09'0 0.0
2017-Nov-15 14:58N 33°42' W 118°09'0 0.0
2017-Nov-15 14:25N 33°42' W 118°09'0 0.0
2017-Nov-15 13:58N 33°42' W 118°09'0 0.0
2017-Nov-15 13:28N 33°42' W 118°09'0 0.1
2017-Nov-15 12:58N 33°42' W 118°09'0 0.1
2017-Nov-15 12:25N 33°42' W 118°09'0 0.6
2017-Nov-15 12:00N 33°42' W 118°09'2 4.2
2017-Nov-15 11:30N 33°44' W 118°11'1 1.0
2017-Nov-15 10:58N 33°44' W 118°10'0 0.0
2017-Nov-14 20:46N 33°44' W 118°10'0 0.0
2017-Nov-14 20:22N 33°44' W 118°10'0 0.0
2017-Nov-14 19:58N 33°44' W 118°10'0 0.2
2017-Nov-14 19:28N 33°44' W 118°10'0 0.3
2017-Nov-14 18:52N 33°44' W 118°10'0 0.1
2017-Nov-14 18:28N 33°44' W 118°10'1 2.9
2017-Nov-14 18:00N 33°43' W 118°11'3 5.7
2017-Nov-14 17:30N 33°40' W 118°11'4 7.3
2017-Nov-14 17:01N 33°37' W 118°12'510.7
2017-Nov-14 16:30N 33°36' W 118°19'611.5
2017-Nov-14 15:59N 33°38' W 118°26'612.3
2017-Nov-14 15:30N 33°41' W 118°32'5 9.8
2017-Nov-14 15:00N 33°46' W 118°34'612.1
2017-Nov-14 14:30N 33°51' W 118°30'4 7.5
2017-Nov-14 14:01N 33°54' W 118°28'0 0.6
2017-Nov-14 13:30N 33°54' W 118°27'2 0.0
2017-Nov-13 01:50N 33°54' W 118°29'0 0.1
2017-Nov-13 01:14N 33°54' W 118°29'0 0.0
2017-Nov-13 00:59N 33°54' W 118°29'0 0.1
2017-Nov-13 00:17N 33°54' W 118°29'0 0.0
2017-Nov-12 23:59N 33°54' W 118°29'0 0.1
2017-Nov-12 23:29N 33°54' W 118°29'0 0.0
2017-Nov-12 22:44N 33°54' W 118°29'0 0.0
2017-Nov-12 22:26N 33°54' W 118°29'0 0.1
2017-Nov-12 21:20N 33°54' W 118°29'0 0.0
2017-Nov-12 19:56N 33°54' W 118°29'0 0.0
2017-Nov-12 19:29N 33°54' W 118°29'0 0.0
2017-Nov-12 18:59N 33°54' W 118°29'0 0.1
2017-Nov-12 18:26N 33°54' W 118°29'0 0.0
2017-Nov-12 17:59N 33°54' W 118°29'0 0.0
2017-Nov-12 16:35N 33°54' W 118°29'0 0.1
2017-Nov-12 16:29N 33°54' W 118°29'0 0.1
2017-Nov-12 15:59N 33°54' W 118°29'0 0.1
2017-Nov-12 15:29N 33°54' W 118°29'0 0.1
2017-Nov-12 14:56N 33°54' W 118°29'0 0.0
2017-Nov-12 14:29N 33°54' W 118°29'0 0.0
2017-Nov-12 13:50N 33°54' W 118°29'0 0.2
2017-Nov-12 13:29N 33°54' W 118°29'0 0.0
2017-Nov-12 12:59N 33°54' W 118°29'0 0.0
2017-Nov-12 12:29N 33°54' W 118°29'0 0.0
2017-Nov-12 10:53N 33°54' W 118°29'0 0.0
2017-Nov-12 10:29N 33°54' W 118°29'0 0.2
2017-Nov-12 09:44N 33°54' W 118°29'0 0.2
2017-Nov-12 09:08N 33°54' W 118°29'0 0.2
2017-Nov-12 08:53N 33°54' W 118°29'0 0.0
2017-Nov-12 08:17N 33°54' W 118°29'0 0.0
2017-Nov-12 07:59N 33°54' W 118°29'0 0.0
2017-Nov-12 07:29N 33°54' W 118°29'0 0.0
2017-Nov-12 06:23N 33°54' W 118°29'0 0.1
2017-Nov-12 05:59N 33°54' W 118°29'0 0.1
2017-Nov-12 05:23N 33°54' W 118°29'0 0.0
2017-Nov-12 04:59N 33°54' W 118°29'0 0.1
2017-Nov-12 04:29N 33°54' W 118°29'0 0.0
2017-Nov-12 03:53N 33°54' W 118°29'0 0.1
2017-Nov-12 03:23N 33°54' W 118°29'0 0.0
2017-Nov-12 02:59N 33°54' W 118°29'0 0.1
2017-Nov-12 02:29N 33°54' W 118°29'0 0.0
2017-Nov-12 01:56N 33°54' W 118°29'0 0.0
2017-Nov-12 01:26N 33°54' W 118°29'0 0.1
2017-Nov-12 00:56N 33°54' W 118°29'0 0.0
2017-Nov-11 21:35N 33°54' W 118°29'0 0.0
2017-Nov-11 20:14N 33°54' W 118°29'0 0.0
2017-Nov-11 19:59N 33°54' W 118°29'0 0.0
2017-Nov-11 19:29N 33°54' W 118°29'0 0.0
2017-Nov-11 18:59N 33°54' W 118°29'0 0.0
2017-Nov-11 16:20N 33°54' W 118°29'0 0.1
2017-Nov-11 15:56N 33°54' W 118°29'0 0.1
2017-Nov-11 15:29N 33°54' W 118°29'0 0.0
2017-Nov-11 14:44N 33°54' W 118°29'0 0.1
2017-Nov-11 14:17N 33°54' W 118°29'0 0.0
2017-Nov-11 12:17N 33°54' W 118°29'0 0.0
2017-Nov-11 11:47N 33°54' W 118°29'0 0.0
2017-Nov-11 06:08N 33°54' W 118°29'0 0.1
2017-Nov-11 05:59N 33°54' W 118°29'0 0.0
2017-Nov-11 03:50N 33°54' W 118°29'0 0.0
2017-Nov-11 03:26N 33°54' W 118°29'0 0.0
2017-Nov-11 01:44N 33°54' W 118°29'0 0.0
2017-Nov-11 01:26N 33°54' W 118°29'0 0.1
2017-Nov-11 00:47N 33°54' W 118°29'0 0.0
2017-Nov-11 00:26N 33°54' W 118°29'0 0.1
2017-Nov-10 23:38N 33°54' W 118°29'0 0.1
2017-Nov-10 22:29N 33°54' W 118°29'1 2.0
2017-Nov-10 22:00N 33°55' W 118°28'1 0.0
2017-Nov-09 18:05N 33°54' W 118°27'0 2.1
2017-Nov-09 17:58N 33°54' W 118°27'1 1.6
2017-Nov-09 17:04N 33°53' W 118°29'0 0.2
2017-Nov-09 16:49N 33°53' W 118°29'0 0.0
2017-Nov-09 15:19N 33°53' W 118°29'0 0.1
2017-Nov-09 14:55N 33°53' W 118°29'0 0.0
2017-Nov-09 14:28N 33°53' W 118°29'0 0.0
2017-Nov-09 13:52N 33°53' W 118°29'0 0.0
2017-Nov-09 13:28N 33°53' W 118°29'0 0.0
2017-Nov-09 12:58N 33°53' W 118°29'0 0.0
2017-Nov-09 12:28N 33°53' W 118°29'0 0.0
2017-Nov-09 11:16N 33°53' W 118°29'0 0.0
2017-Nov-09 07:28N 33°53' W 118°29'0 0.0
2017-Nov-09 06:58N 33°53' W 118°29'0 0.0
2017-Nov-09 06:28N 33°53' W 118°29'0 0.0
2017-Nov-09 05:58N 33°53' W 118°29'0 0.0
2017-Nov-09 05:28N 33°53' W 118°29'0 0.0
2017-Nov-09 04:55N 33°53' W 118°29'0 0.0
2017-Nov-09 04:28N 33°53' W 118°29'81345411.7
2017-Nov-09 02:58N 01°13' E 103°31'813413518.9
2017-Nov-09 02:22N 33°53' W 118°29'0 0.7
2017-Nov-09 02:01N 33°54' W 118°29'2 3.0
2017-Nov-09 01:27N 33°52' W 118°30'4 9.8
2017-Nov-09 01:00N 33°49' W 118°33'5 9.6
2017-Nov-09 00:30N 33°44' W 118°32'611.0
2017-Nov-09 00:00N 33°41' W 118°26'510.9
2017-Nov-08 23:30N 33°38' W 118°21'610.9
2017-Nov-08 23:00N 33°37' W 118°14'510.4
2017-Nov-08 22:30N 33°34' W 118°09'611.6
2017-Nov-08 22:00N 33°29' W 118°07'611.7
2017-Nov-08 21:30N 33°23' W 118°04'612.0
2017-Nov-08 21:00N 33°18' W 118°02'612.1
2017-Nov-08 20:30N 33°12' W 118°00'612.6
2017-Nov-08 20:00N 33°06' W 117°59'713.7
2017-Nov-08 19:30N 32°59' W 117°57'713.7
2017-Nov-08 19:00N 32°52' W 117°54'713.7
2017-Nov-08 18:31N 32°46' W 117°53'714.1
2017-Nov-08 18:00N 32°39' W 117°51'714.2
2017-Nov-08 17:31N 32°32' W 117°49'713.9
2017-Nov-08 17:00N 32°25' W 117°46'713.7
2017-Nov-08 16:30N 32°19' W 117°44'  
Track history (hours):
 
Tides and Currents Weather Stations Pressure Air Temp Water Temp Dewpoint Dewpoint Depression Visibility Wind Speed Wind Dir Waves Ship Positions

Maran Hermione

Last reported at 2017-Nov-16 16:13 UTC. Time now 2017-Nov-22 20:40 UTC.
Position N 30°43' W 117°18'.

Length 274 m; draft 10 m.

Type: Tanker. MMSI: 241490000.

Date/timePositionNaut miles runAvg speedWind from/ knotsBaromVisibWave heightAir tempDewpointWater temp
2017-Nov-16 16:13N 30°43' W 117°18'2 9.5
2017-Nov-16 16:00N 30°45' W 117°18'10 9.8
2017-Nov-16 14:58N 30°55' W 117°22'510.1
2017-Nov-16 14:30N 30°59' W 117°23'710.0
2017-Nov-16 13:47N 31°06' W 117°25'310.0
2017-Nov-16 13:30N 31°09' W 117°26'510.0
2017-Nov-16 13:00N 31°14' W 117°27'5 9.9
2017-Nov-16 12:30N 31°19' W 117°29'5 9.9
2017-Nov-16 11:57N 31°24' W 117°30'410.0
2017-Nov-16 11:30N 31°28' W 117°32'5 9.9
2017-Nov-16 10:59N 31°33' W 117°33'510.0
2017-Nov-16 10:28N 31°38' W 117°35'5 9.8
2017-Nov-16 10:00N 31°43' W 117°36'5 9.8
2017-Nov-16 09:29N 31°48' W 117°38'10 9.5
2017-Nov-16 08:26N 31°57' W 117°41'4 9.6
2017-Nov-16 08:00N 32°01' W 117°42'8 9.8
2017-Nov-16 07:11N 32°09' W 117°44'2 9.9
2017-Nov-16 07:00N 32°11' W 117°45'510.3
2017-Nov-16 06:30N 32°16' W 117°47'5 9.3
2017-Nov-16 06:00N 32°20' W 117°48'5 9.2
2017-Nov-16 05:30N 32°25' W 117°49'5 9.2
2017-Nov-16 05:00N 32°29' W 117°51'5 9.4
2017-Nov-16 04:31N 32°34' W 117°52'5 9.4
2017-Nov-16 04:01N 32°38' W 117°53'5 9.5
2017-Nov-16 03:30N 32°43' W 117°55'5 9.6
2017-Nov-16 03:00N 32°48' W 117°56'5 9.8
2017-Nov-16 02:30N 32°52' W 117°58'5 9.9
2017-Nov-16 02:00N 32°57' W 117°59'5 9.9
2017-Nov-16 01:30N 33°02' W 118°01'5 9.8
2017-Nov-16 01:00N 33°07' W 118°02'5 9.7
2017-Nov-16 00:30N 33°11' W 118°04'5 9.7
2017-Nov-16 00:00N 33°16' W 118°05'5 9.8
2017-Nov-15 23:31N 33°21' W 118°07'5 9.9
2017-Nov-15 23:00N 33°25' W 118°09'5 9.9
2017-Nov-15 22:30N 33°30' W 118°11'5 9.7
2017-Nov-15 22:00N 33°34' W 118°13'510.4
2017-Nov-15 21:30N 33°40' W 118°11'3 1.1
2017-Nov-15 18:55N 33°42' W 118°09'0 0.0
2017-Nov-15 17:43N 33°42' W 118°09'0 0.0
2017-Nov-15 16:01N 33°42' W 118°09'0 0.2
2017-Nov-15 15:37N 33°42' W 118°09'0 0.1
2017-Nov-15 15:28N 33°42' W 118°09'0 0.0
2017-Nov-15 14:58N 33°42' W 118°09'0 0.0
2017-Nov-15 14:25N 33°42' W 118°09'0 0.0
2017-Nov-15 13:58N 33°42' W 118°09'0 0.0
2017-Nov-15 13:28N 33°42' W 118°09'0 0.1
2017-Nov-15 12:58N 33°42' W 118°09'0 0.1
2017-Nov-15 12:25N 33°42' W 118°09'0 0.6
2017-Nov-15 12:00N 33°42' W 118°09'2 4.2
2017-Nov-15 11:30N 33°44' W 118°11'1 1.0
2017-Nov-15 10:58N 33°44' W 118°10'0 0.0
2017-Nov-14 20:46N 33°44' W 118°10'0 0.0
2017-Nov-14 20:22N 33°44' W 118°10'0 0.0
2017-Nov-14 19:58N 33°44' W 118°10'0 0.2
2017-Nov-14 19:28N 33°44' W 118°10'0 0.3
2017-Nov-14 18:52N 33°44' W 118°10'0 0.1
2017-Nov-14 18:28N 33°44' W 118°10'1 2.9
2017-Nov-14 18:00N 33°43' W 118°11'3 5.7
2017-Nov-14 17:30N 33°40' W 118°11'4 7.3
2017-Nov-14 17:01N 33°37' W 118°12'510.7
2017-Nov-14 16:30N 33°36' W 118°19'611.5
2017-Nov-14 15:59N 33°38' W 118°26'612.3
2017-Nov-14 15:30N 33°41' W 118°32'5 9.8
2017-Nov-14 15:00N 33°46' W 118°34'612.1
2017-Nov-14 14:30N 33°51' W 118°30'4 7.5
2017-Nov-14 14:01N 33°54' W 118°28'0 0.6
2017-Nov-14 13:30N 33°54' W 118°27'2 0.0
2017-Nov-13 01:50N 33°54' W 118°29'0 0.1
2017-Nov-13 01:14N 33°54' W 118°29'0 0.0
2017-Nov-13 00:59N 33°54' W 118°29'0 0.1
2017-Nov-13 00:17N 33°54' W 118°29'0 0.0
2017-Nov-12 23:59N 33°54' W 118°29'0 0.1
2017-Nov-12 23:29N 33°54' W 118°29'0 0.0
2017-Nov-12 22:44N 33°54' W 118°29'0 0.0
2017-Nov-12 22:26N 33°54' W 118°29'0 0.1
2017-Nov-12 21:20N 33°54' W 118°29'0 0.0
2017-Nov-12 19:56N 33°54' W 118°29'0 0.0
2017-Nov-12 19:29N 33°54' W 118°29'0 0.0
2017-Nov-12 18:59N 33°54' W 118°29'0 0.1
2017-Nov-12 18:26N 33°54' W 118°29'0 0.0
2017-Nov-12 17:59N 33°54' W 118°29'0 0.0
2017-Nov-12 16:35N 33°54' W 118°29'0 0.1
2017-Nov-12 16:29N 33°54' W 118°29'0 0.1
2017-Nov-12 15:59N 33°54' W 118°29'0 0.1
2017-Nov-12 15:29N 33°54' W 118°29'0 0.1
2017-Nov-12 14:56N 33°54' W 118°29'0 0.0
2017-Nov-12 14:29N 33°54' W 118°29'0 0.0
2017-Nov-12 13:50N 33°54' W 118°29'0 0.2
2017-Nov-12 13:29N 33°54' W 118°29'0 0.0
2017-Nov-12 12:59N 33°54' W 118°29'0 0.0
2017-Nov-12 12:29N 33°54' W 118°29'0 0.0
2017-Nov-12 10:53N 33°54' W 118°29'0 0.0
2017-Nov-12 10:29N 33°54' W 118°29'0 0.2
2017-Nov-12 09:44N 33°54' W 118°29'0 0.2
2017-Nov-12 09:08N 33°54' W 118°29'0 0.2
2017-Nov-12 08:53N 33°54' W 118°29'0 0.0
2017-Nov-12 08:17N 33°54' W 118°29'0 0.0
2017-Nov-12 07:59N 33°54' W 118°29'0 0.0
2017-Nov-12 07:29N 33°54' W 118°29'0 0.0
2017-Nov-12 06:23N 33°54' W 118°29'0 0.1
2017-Nov-12 05:59N 33°54' W 118°29'0 0.1
2017-Nov-12 05:23N 33°54' W 118°29'0 0.0
2017-Nov-12 04:59N 33°54' W 118°29'0 0.1
2017-Nov-12 04:29N 33°54' W 118°29'0 0.0
2017-Nov-12 03:53N 33°54' W 118°29'0 0.1
2017-Nov-12 03:23N 33°54' W 118°29'0 0.0
2017-Nov-12 02:59N 33°54' W 118°29'0 0.1
2017-Nov-12 02:29N 33°54' W 118°29'0 0.0
2017-Nov-12 01:56N 33°54' W 118°29'0 0.0
2017-Nov-12 01:26N 33°54' W 118°29'0 0.1
2017-Nov-12 00:56N 33°54' W 118°29'0 0.0
2017-Nov-11 21:35N 33°54' W 118°29'0 0.0
2017-Nov-11 20:14N 33°54' W 118°29'0 0.0
2017-Nov-11 19:59N 33°54' W 118°29'0 0.0
2017-Nov-11 19:29N 33°54' W 118°29'0 0.0
2017-Nov-11 18:59N 33°54' W 118°29'0 0.0
2017-Nov-11 16:20N 33°54' W 118°29'0 0.1
2017-Nov-11 15:56N 33°54' W 118°29'0 0.1
2017-Nov-11 15:29N 33°54' W 118°29'0 0.0
2017-Nov-11 14:44N 33°54' W 118°29'0 0.1
2017-Nov-11 14:17N 33°54' W 118°29'0 0.0
2017-Nov-11 12:17N 33°54' W 118°29'0 0.0
2017-Nov-11 11:47N 33°54' W 118°29'0 0.0
2017-Nov-11 06:08N 33°54' W 118°29'0 0.1
2017-Nov-11 05:59N 33°54' W 118°29'0 0.0
2017-Nov-11 03:50N 33°54' W 118°29'0 0.0
2017-Nov-11 03:26N 33°54' W 118°29'0 0.0
2017-Nov-11 01:44N 33°54' W 118°29'0 0.0
2017-Nov-11 01:26N 33°54' W 118°29'0 0.1
2017-Nov-11 00:47N 33°54' W 118°29'0 0.0
2017-Nov-11 00:26N 33°54' W 118°29'0 0.1
2017-Nov-10 23:38N 33°54' W 118°29'0 0.1
2017-Nov-10 22:29N 33°54' W 118°29'1 2.0
2017-Nov-10 22:00N 33°55' W 118°28'1 0.0
2017-Nov-09 18:05N 33°54' W 118°27'0 2.1
2017-Nov-09 17:58N 33°54' W 118°27'1 1.6
2017-Nov-09 17:04N 33°53' W 118°29'0 0.2
2017-Nov-09 16:49N 33°53' W 118°29'0 0.0
2017-Nov-09 15:19N 33°53' W 118°29'0 0.1
2017-Nov-09 14:55N 33°53' W 118°29'0 0.0
2017-Nov-09 14:28N 33°53' W 118°29'0 0.0
2017-Nov-09 13:52N 33°53' W 118°29'0 0.0
2017-Nov-09 13:28N 33°53' W 118°29'0 0.0
2017-Nov-09 12:58N 33°53' W 118°29'0 0.0
2017-Nov-09 12:28N 33°53' W 118°29'0 0.0
2017-Nov-09 11:16N 33°53' W 118°29'0 0.0
2017-Nov-09 07:28N 33°53' W 118°29'0 0.0
2017-Nov-09 06:58N 33°53' W 118°29'0 0.0
2017-Nov-09 06:28N 33°53' W 118°29'0 0.0
2017-Nov-09 05:58N 33°53' W 118°29'0 0.0
2017-Nov-09 05:28N 33°53' W 118°29'0 0.0
2017-Nov-09 04:55N 33°53' W 118°29'0 0.0
2017-Nov-09 04:28N 33°53' W 118°29'81345411.7
2017-Nov-09 02:58N 01°13' E 103°31'813413518.9
2017-Nov-09 02:22N 33°53' W 118°29'0 0.7
2017-Nov-09 02:01N 33°54' W 118°29'2 3.0
2017-Nov-09 01:27N 33°52' W 118°30'4 9.8
2017-Nov-09 01:00N 33°49' W 118°33'5 9.6
2017-Nov-09 00:30N 33°44' W 118°32'611.0
2017-Nov-09 00:00N 33°41' W 118°26'510.9
2017-Nov-08 23:30N 33°38' W 118°21'610.9
2017-Nov-08 23:00N 33°37' W 118°14'510.4
2017-Nov-08 22:30N 33°34' W 118°09'611.6
2017-Nov-08 22:00N 33°29' W 118°07'611.7
2017-Nov-08 21:30N 33°23' W 118°04'612.0
2017-Nov-08 21:00N 33°18' W 118°02'612.1
2017-Nov-08 20:30N 33°12' W 118°00'612.6
2017-Nov-08 20:00N 33°06' W 117°59'713.7
2017-Nov-08 19:30N 32°59' W 117°57'713.7
2017-Nov-08 19:00N 32°52' W 117°54'713.7
2017-Nov-08 18:31N 32°46' W 117°53'714.1
2017-Nov-08 18:00N 32°39' W 117°51'714.2
2017-Nov-08 17:31N 32°32' W 117°49'713.9
2017-Nov-08 17:00N 32°25' W 117°46'713.7
2017-Nov-08 16:30N 32°19' W 117°44'  

Dump ship's entire track history